This is the latest recevied weather packets stored in our database for station/object G4MDP-13. If no packets are shown the sender has not sent any weather packets the latest 10 day(s).
| Time | Temp. | Humidity | Pressure | Rain* | Wind** | Luminosity | Snow |
|---|---|---|---|---|---|---|---|
| 1778151208 | 15° C | 55% | 1010.4 hPa | 0 mm | - | - | - |
| 1778150957 | 15.56° C | 56% | 1010.4 hPa | 0 mm | - | - | - |
| 1778150117 | 15° C | 60% | 1010.5 hPa | 0 mm | - | - | - |
| 1778150057 | 15° C | 60% | 1010.6 hPa | 0 mm | - | - | - |
| 1778149157 | 14.44° C | 59% | 1010.5 hPa | 0 mm | - | - | - |
| 1778148317 | 15° C | 58% | 1010.5 hPa | 0 mm | - | - | - |
| 1778148257 | 15° C | 58% | 1010.5 hPa | 0 mm | - | - | - |
| 1778147357 | 15.56° C | 57% | 1010.4 hPa | 0 mm | - | - | - |
| 1778146517 | 15° C | 56% | 1010.6 hPa | 0 mm | - | - | - |
| 1778146458 | 15° C | 56% | 1010.4 hPa | 0 mm | - | - | - |
| 1778145557 | 15.56° C | 55% | 1010.3 hPa | 0 mm | - | - | - |
| 1778144717 | 15° C | 57% | 1010.5 hPa | 0 mm | - | - | - |
| 1778144657 | 15° C | 57% | 1010.3 hPa | 0 mm | - | - | - |
| 1778143757 | 14.44° C | 58% | 1010.6 hPa | 0 mm | - | - | - |
| 1778142917 | 14.44° C | 58% | 1010.4 hPa | 0 mm | - | - | - |
| 1778142857 | 14.44° C | 58% | 1010.3 hPa | 0 mm | - | - | - |
| 1778141957 | 15° C | 58% | 1010.3 hPa | 0 mm | - | - | - |
| 1778141117 | 14.44° C | 60% | 1010.3 hPa | 0 mm | - | - | - |
| 1778141057 | 14.44° C | 60% | 1010.4 hPa | 0 mm | - | - | - |
| 1778140157 | 13.89° C | 63% | 1010.2 hPa | 0 mm | - | - | - |
| 1778139317 | 12.78° C | 67% | 1010.4 hPa | 0 mm | - | - | - |
| 1778139257 | 13.33° C | 68% | 1010.3 hPa | 0 mm | - | - | - |
| 1778138357 | 12.22° C | 72% | 1010.1 hPa | 0 mm | - | - | - |
| 1778137517 | 11.11° C | 77% | 1016 hPa | 0 mm | - | - | - |
| 1778137457 | 11.11° C | 78% | 1010.1 hPa | 0 mm | - | - | - |
* Rain latest hour (hover to see other rain measurements)
** Current wind speed in m/s (hover to see current wind gust speed)